createdAt,value
2019-04-14T00:00:21.195Z,0.00
2019-04-14T00:01:21.636Z,0.00
2019-04-14T00:02:21.164Z,0.00
2019-04-14T00:03:21.604Z,0.00
2019-04-14T00:04:22.486Z,0.00
2019-04-14T00:05:21.155Z,0.00
2019-04-14T00:06:22.304Z,0.00
2019-04-14T00:07:21.141Z,0.00
2019-04-14T00:08:22.030Z,0.00
2019-04-14T00:09:21.142Z,0.00
2019-04-14T00:10:21.098Z,0.00
2019-04-14T00:11:21.262Z,0.00
2019-04-14T00:12:21.090Z,0.00
2019-04-14T00:13:21.760Z,0.00
2019-04-14T00:14:21.070Z,0.00
2019-04-14T00:15:29.441Z,0.00
2019-04-14T00:16:22.771Z,0.00
2019-04-14T00:17:21.637Z,0.00
2019-04-14T00:18:21.019Z,0.00
2019-04-14T00:19:21.726Z,0.00
2019-04-14T00:20:21.005Z,0.00
2019-04-14T00:21:21.535Z,0.00
2019-04-14T00:22:20.962Z,0.00
2019-04-14T00:23:21.560Z,0.00
2019-04-14T00:24:21.027Z,0.00
2019-04-14T00:25:21.613Z,0.00
2019-04-14T00:26:20.907Z,0.00
2019-04-14T00:27:21.424Z,0.00
2019-04-14T00:28:20.917Z,0.00
2019-04-14T00:29:21.727Z,0.00
2019-04-14T00:30:20.908Z,0.00
2019-04-14T00:31:21.657Z,0.00
2019-04-14T00:32:20.873Z,0.00
2019-04-14T00:33:21.400Z,0.00
2019-04-14T00:34:20.876Z,0.00
2019-04-14T00:35:21.056Z,0.00
2019-04-14T00:36:21.828Z,0.00
2019-04-14T00:37:20.815Z,0.00
2019-04-14T00:38:21.778Z,0.00
2019-04-14T00:39:22.552Z,0.00
2019-04-14T00:40:21.537Z,0.00
2019-04-14T00:41:33.790Z,0.00
2019-04-14T00:42:21.757Z,0.00
2019-04-14T00:43:21.841Z,0.00
2019-04-14T00:44:21.041Z,0.00
2019-04-14T00:45:32.232Z,0.00
2019-04-14T00:46:21.702Z,0.00
2019-04-14T00:47:20.697Z,0.00
2019-04-14T00:48:22.285Z,0.00
2019-04-14T00:49:20.706Z,0.00
2019-04-14T00:50:21.118Z,0.00
2019-04-14T00:51:21.992Z,0.00
2019-04-14T00:52:21.425Z,0.00
2019-04-14T00:53:20.843Z,0.00
2019-04-14T00:54:21.725Z,0.00
2019-04-14T00:55:20.633Z,0.00
2019-04-14T00:56:21.504Z,0.00
2019-04-14T00:57:20.598Z,0.00
2019-04-14T00:58:21.467Z,0.00
2019-04-14T00:59:20.575Z,0.00
2019-04-14T01:00:21.869Z,0.00
2019-04-14T01:01:20.539Z,0.00
2019-04-14T01:02:21.073Z,0.00
2019-04-14T01:03:20.528Z,0.00
2019-04-14T01:04:20.836Z,0.00
2019-04-14T01:05:21.662Z,0.00
2019-04-14T01:06:20.828Z,0.00
2019-04-14T01:07:21.554Z,0.00
2019-04-14T01:08:20.657Z,0.00
2019-04-14T01:09:21.565Z,0.00
2019-04-14T01:10:21.313Z,0.00
2019-04-14T01:11:20.436Z,0.00
2019-04-14T01:12:21.365Z,0.00
2019-04-14T01:13:20.420Z,0.00
2019-04-14T01:14:21.274Z,0.00
2019-04-14T01:15:20.434Z,0.00
2019-04-14T01:16:23.424Z,0.00
2019-04-14T01:17:20.375Z,0.00
2019-04-14T01:18:21.227Z,0.00
2019-04-14T01:19:20.358Z,0.00
2019-04-14T01:20:21.112Z,0.00
2019-04-14T01:21:20.349Z,0.00
2019-04-14T01:22:20.584Z,0.00
2019-04-14T01:23:21.452Z,0.00
2019-04-14T01:24:20.691Z,0.00
2019-04-14T01:25:21.437Z,0.00
2019-04-14T01:26:20.391Z,0.00
2019-04-14T01:27:21.102Z,0.00
2019-04-14T01:28:20.279Z,0.00
2019-04-14T01:29:20.937Z,0.00
2019-04-14T01:30:20.240Z,0.00
2019-04-14T01:31:20.623Z,0.00
2019-04-14T01:32:20.210Z,0.00
2019-04-14T01:33:20.586Z,0.00
2019-04-14T01:34:20.182Z,0.00
2019-04-14T01:35:20.336Z,0.00
2019-04-14T01:36:21.217Z,0.00
2019-04-14T01:37:20.209Z,0.00
2019-04-14T01:38:21.191Z,0.00
2019-04-14T01:39:20.140Z,0.00
2019-04-14T01:40:20.679Z,0.00
2019-04-14T01:41:20.126Z,0.00
2019-04-14T01:42:20.310Z,0.00
2019-04-14T01:43:21.257Z,0.00
2019-04-14T01:44:20.085Z,0.00
2019-04-14T01:45:21.081Z,0.00
2019-04-14T01:46:24.710Z,0.00
2019-04-14T01:47:21.038Z,0.00
2019-04-14T01:48:20.044Z,0.00
2019-04-14T01:49:20.381Z,0.00
2019-04-14T01:50:21.199Z,0.00
2019-04-14T01:51:20.283Z,0.00
2019-04-14T01:52:20.983Z,0.00
2019-04-14T01:53:20.776Z,0.00
2019-04-14T01:54:19.974Z,0.00
2019-04-14T01:55:20.168Z,0.00
2019-04-14T01:56:20.868Z,0.00
2019-04-14T01:57:20.024Z,0.00
2019-04-14T01:58:20.776Z,0.00
2019-04-14T01:59:19.933Z,0.00
2019-04-14T02:00:20.782Z,0.00
2019-04-14T02:01:19.907Z,0.00
2019-04-14T02:02:20.554Z,0.00
2019-04-14T02:03:19.880Z,0.00
2019-04-14T02:04:20.354Z,0.00
2019-04-14T02:05:19.906Z,0.00
2019-04-14T02:06:20.169Z,0.00
2019-04-14T02:07:20.986Z,0.00
2019-04-14T02:08:19.911Z,0.00
2019-04-14T02:09:20.877Z,0.00
2019-04-14T02:10:19.838Z,0.00
2019-04-14T02:11:20.569Z,0.00
2019-04-14T02:12:19.781Z,0.00
2019-04-14T02:13:20.339Z,0.00
2019-04-14T02:14:19.761Z,0.00
2019-04-14T02:15:20.036Z,0.00
2019-04-14T02:16:30.464Z,0.00
2019-04-14T02:17:21.933Z,0.00
2019-04-14T02:18:20.847Z,0.00
2019-04-14T02:19:19.898Z,0.00
2019-04-14T02:20:20.746Z,0.00
2019-04-14T02:21:19.709Z,0.00
2019-04-14T02:22:20.302Z,0.00
2019-04-14T02:23:19.682Z,0.00
2019-04-14T02:24:19.991Z,0.00
2019-04-14T02:25:20.928Z,0.00
2019-04-14T02:26:19.795Z,0.00
2019-04-14T02:27:20.929Z,0.00
2019-04-14T02:28:19.898Z,0.00
2019-04-14T02:29:19.612Z,0.00
2019-04-14T02:30:23.058Z,0.00
2019-04-14T02:31:39.436Z,0.00
2019-04-14T02:32:50.973Z,0.00
2019-04-14T02:33:44.427Z,0.00
2019-04-14T02:35:55.300Z,0.00
2019-04-14T02:36:52.397Z,0.00
2019-04-14T02:40:21.724Z,0.00
2019-04-14T02:40:55.983Z,0.00
2019-04-14T02:42:46.434Z,0.00
2019-04-14T02:43:52.305Z,0.00
2019-04-14T02:44:57.732Z,0.00
2019-04-14T02:45:52.028Z,0.00
2019-04-14T02:47:12.955Z,0.00
2019-04-14T02:48:52.845Z,0.00
2019-04-14T02:50:48.332Z,0.00
2019-04-14T02:52:53.677Z,0.00
2019-04-14T02:53:49.794Z,0.00
2019-04-14T02:54:55.272Z,0.00
2019-04-14T02:55:50.914Z,0.00
2019-04-14T02:56:44.802Z,0.00
2019-04-14T02:57:49.358Z,0.00
2019-04-14T02:59:00.025Z,0.00
2019-04-14T03:00:48.143Z,0.00
2019-04-14T03:02:20.213Z,0.00
2019-04-14T03:02:44.131Z,0.00
2019-04-14T03:03:43.469Z,0.00
2019-04-14T03:06:52.204Z,0.00
2019-04-14T03:07:45.938Z,0.00
2019-04-14T03:08:52.096Z,0.00
2019-04-14T03:09:53.773Z,0.00
2019-04-14T03:10:51.527Z,0.00
2019-04-14T03:11:48.988Z,0.00
2019-04-14T03:12:54.627Z,0.00
2019-04-14T03:13:45.896Z,0.00
2019-04-14T03:14:48.013Z,0.00
2019-04-14T03:15:48.217Z,0.00
2019-04-14T03:16:58.439Z,0.00
2019-04-14T03:17:47.355Z,0.00
2019-04-14T03:18:44.684Z,0.00
2019-04-14T03:19:56.407Z,0.00
2019-04-14T03:20:40.038Z,0.00
2019-04-14T03:22:49.925Z,0.00
2019-04-14T03:23:48.638Z,0.00
2019-04-14T03:24:37.436Z,0.00
2019-04-14T03:25:34.298Z,0.00
2019-04-14T03:27:49.940Z,0.00
2019-04-14T03:29:43.134Z,0.00
2019-04-14T03:32:17.380Z,0.00
2019-04-14T03:34:50.068Z,0.00
2019-04-14T03:37:59.259Z,0.00
2019-04-14T03:38:53.273Z,0.00
2019-04-14T03:39:45.993Z,0.00
2019-04-14T03:41:45.264Z,0.00
2019-04-14T03:42:54.013Z,0.00
2019-04-14T03:43:41.344Z,0.00
2019-04-14T03:44:48.932Z,0.00
2019-04-14T03:45:50.808Z,0.00
2019-04-14T03:47:42.129Z,0.00
2019-04-14T03:49:45.196Z,0.00
2019-04-14T03:50:44.327Z,0.00
2019-04-14T03:51:59.607Z,0.00
2019-04-14T03:52:50.081Z,0.00
2019-04-14T03:53:41.302Z,0.00
2019-04-14T03:54:40.552Z,0.00
2019-04-14T03:55:33.210Z,0.00
2019-04-14T03:56:21.208Z,0.00
2019-04-14T03:57:19.317Z,0.00
2019-04-14T03:58:18.674Z,0.00
2019-04-14T03:59:19.652Z,0.00
2019-04-14T04:00:18.661Z,0.00
2019-04-14T04:01:19.330Z,0.00
2019-04-14T04:02:18.612Z,0.00
2019-04-14T04:03:19.622Z,0.00
2019-04-14T04:04:18.587Z,0.00
2019-04-14T04:05:19.471Z,0.00
2019-04-14T04:06:18.616Z,0.00
2019-04-14T04:07:19.233Z,0.00
2019-04-14T04:08:18.557Z,0.00
2019-04-14T04:09:19.276Z,0.00
2019-04-14T04:10:18.543Z,0.00
2019-04-14T04:11:19.357Z,0.00
2019-04-14T04:12:18.488Z,0.00
2019-04-14T04:13:19.388Z,0.00
2019-04-14T04:14:18.482Z,0.00
2019-04-14T04:15:19.223Z,0.00
2019-04-14T04:16:18.483Z,0.00
2019-04-14T04:17:18.995Z,0.00
2019-04-14T04:18:18.444Z,4.00
2019-04-14T04:19:19.732Z,4.00
2019-04-14T04:20:19.551Z,0.00
2019-04-14T04:21:18.471Z,4.00
2019-04-14T04:22:19.324Z,4.00
2019-04-14T04:23:18.458Z,4.00
2019-04-14T04:24:19.239Z,4.00
2019-04-14T04:25:18.378Z,4.00
2019-04-14T04:26:19.096Z,8.00
2019-04-14T04:27:18.339Z,8.00
2019-04-14T04:28:18.834Z,8.00
2019-04-14T04:29:18.317Z,8.00
2019-04-14T04:30:18.662Z,12.00
2019-04-14T04:31:18.306Z,12.00
2019-04-14T04:32:18.627Z,16.00
2019-04-14T04:33:18.298Z,20.00
2019-04-14T04:34:18.392Z,16.00
2019-04-14T04:35:18.266Z,20.00
2019-04-14T04:36:18.250Z,20.00
2019-04-14T04:37:19.260Z,24.00
2019-04-14T04:38:18.231Z,28.00
2019-04-14T04:39:19.276Z,28.00
2019-04-14T04:40:18.196Z,32.00
2019-04-14T04:41:18.979Z,36.00
2019-04-14T04:42:18.175Z,44.00
2019-04-14T04:43:19.031Z,52.00
2019-04-14T04:44:18.180Z,56.00
2019-04-14T04:45:19.147Z,64.00
2019-04-14T04:46:18.178Z,64.00
2019-04-14T04:47:18.796Z,68.00
2019-04-14T04:48:18.112Z,72.00
2019-04-14T04:49:21.796Z,76.00
2019-04-14T04:50:19.304Z,72.00
2019-04-14T04:51:18.241Z,80.00
2019-04-14T04:52:19.104Z,84.00
2019-04-14T04:53:18.166Z,88.00
2019-04-14T04:54:18.921Z,92.00
2019-04-14T04:55:18.046Z,92.00
2019-04-14T04:56:18.683Z,100.00
2019-04-14T04:57:18.013Z,104.00
2019-04-14T04:58:18.000Z,112.00
2019-04-14T04:59:18.939Z,108.00
2019-04-14T05:00:17.987Z,104.00
2019-04-14T05:01:18.821Z,108.00
2019-04-14T05:02:17.976Z,120.00
2019-04-14T05:03:18.999Z,128.00
2019-04-14T05:04:17.953Z,136.00
2019-04-14T05:05:18.778Z,128.00
2019-04-14T05:06:20.873Z,116.00
2019-04-14T05:07:18.784Z,116.00
2019-04-14T05:08:17.903Z,116.00
2019-04-14T05:09:18.860Z,124.00
2019-04-14T05:10:17.913Z,124.00
2019-04-14T05:11:18.701Z,128.00
2019-04-14T05:12:17.879Z,140.00
2019-04-14T05:13:18.396Z,156.00
2019-04-14T05:14:17.851Z,168.00
2019-04-14T05:15:18.348Z,172.00
2019-04-14T05:16:17.836Z,176.00
2019-04-14T05:17:19.043Z,176.00
2019-04-14T05:18:17.891Z,188.00
2019-04-14T05:19:25.781Z,200.00
2019-04-14T05:20:18.773Z,208.00
2019-04-14T05:21:17.784Z,224.00
2019-04-14T05:22:19.267Z,244.00
2019-04-14T05:23:19.006Z,268.00
2019-04-14T05:24:17.963Z,280.00
2019-04-14T05:25:18.885Z,288.00
2019-04-14T05:26:17.877Z,284.00
2019-04-14T05:27:18.823Z,284.00
2019-04-14T05:28:17.859Z,284.00
2019-04-14T05:29:18.883Z,296.00
2019-04-14T05:30:17.670Z,316.00
2019-04-14T05:31:18.599Z,340.00
2019-04-14T05:32:17.659Z,364.00
2019-04-14T05:33:18.568Z,388.00
2019-04-14T05:34:17.638Z,412.00
2019-04-14T05:35:18.419Z,456.00
2019-04-14T05:36:17.635Z,492.00
2019-04-14T05:37:18.257Z,488.00
2019-04-14T05:38:17.595Z,464.00
2019-04-14T05:39:17.790Z,472.00
2019-04-14T05:40:18.791Z,484.00
2019-04-14T05:41:17.977Z,508.00
2019-04-14T05:42:20.176Z,552.00
2019-04-14T05:43:31.272Z,608.00
2019-04-14T05:44:18.659Z,660.00
2019-04-14T05:45:17.713Z,752.00
2019-04-14T05:46:18.467Z,784.00
2019-04-14T05:47:17.615Z,772.00
2019-04-14T05:48:18.252Z,772.00
2019-04-14T05:49:28.619Z,796.00
2019-04-14T05:50:18.439Z,856.00
2019-04-14T05:51:20.160Z,956.00
2019-04-14T05:52:18.416Z,1116.00
2019-04-14T05:53:17.570Z,1284.00
2019-04-14T05:54:18.461Z,1268.00
2019-04-14T05:55:17.652Z,1240.00
2019-04-14T05:56:18.543Z,1320.00
2019-04-14T05:57:17.687Z,1368.00
2019-04-14T05:58:18.490Z,1384.00
2019-04-14T05:59:17.722Z,1328.00
2019-04-14T06:00:17.363Z,1388.00
2019-04-14T06:01:18.166Z,1440.00
2019-04-14T06:02:18.049Z,1472.00
2019-04-14T06:03:17.329Z,1648.00
2019-04-14T06:04:17.832Z,1776.00
2019-04-14T06:05:17.313Z,1772.00
2019-04-14T06:06:17.302Z,1776.00
2019-04-14T06:07:17.305Z,1880.00
2019-04-14T06:08:17.278Z,1984.00
2019-04-14T06:09:17.244Z,2108.00
2019-04-14T06:10:17.252Z,2184.00
2019-04-14T06:11:17.247Z,2208.00
2019-04-14T06:12:17.269Z,2204.00
2019-04-14T06:13:17.220Z,2228.00
2019-04-14T06:14:17.194Z,2212.00
2019-04-14T06:15:17.217Z,2312.00
2019-04-14T06:16:17.171Z,2316.00
2019-04-14T06:17:17.231Z,2256.00
2019-04-14T06:18:17.160Z,2200.00
2019-04-14T06:19:17.174Z,2232.00
2019-04-14T06:20:17.132Z,2412.00
2019-04-14T06:21:17.147Z,2640.00
2019-04-14T06:22:17.145Z,2632.00
2019-04-14T06:23:17.101Z,2684.00
2019-04-14T06:24:17.101Z,2776.00
2019-04-14T06:25:17.129Z,2852.00
2019-04-14T06:26:17.079Z,2884.00
2019-04-14T06:27:17.110Z,2732.00
2019-04-14T06:28:17.099Z,2624.00
2019-04-14T06:29:17.035Z,2560.00
2019-04-14T06:30:17.049Z,2448.00
2019-04-14T06:31:17.023Z,2400.00
2019-04-14T06:32:17.041Z,2500.00
2019-04-14T06:33:17.016Z,2508.00
2019-04-14T06:34:17.003Z,2532.00
2019-04-14T06:35:16.990Z,2720.00
2019-04-14T06:36:16.983Z,3124.00
2019-04-14T06:37:16.974Z,3668.00
2019-04-14T06:38:16.973Z,3912.00
2019-04-14T06:39:16.962Z,3940.00
2019-04-14T06:40:16.941Z,4280.00
2019-04-14T06:41:16.925Z,4524.00
2019-04-14T06:42:16.938Z,4524.00
2019-04-14T06:43:16.918Z,4720.00
2019-04-14T06:44:16.906Z,4744.00
2019-04-14T06:45:16.882Z,4792.00
2019-04-14T06:46:16.862Z,5112.00
2019-04-14T06:47:16.932Z,5612.00
2019-04-14T06:48:16.857Z,6344.00
2019-04-14T06:49:16.846Z,6616.00
2019-04-14T06:50:16.817Z,6808.00
2019-04-14T06:51:16.837Z,7272.00
2019-04-14T06:52:16.827Z,7708.00
2019-04-14T06:53:16.785Z,7932.00
2019-04-14T06:54:16.796Z,8004.00
2019-04-14T06:55:16.777Z,8016.00
2019-04-14T06:56:16.773Z,8084.00
2019-04-14T06:57:16.762Z,8116.00
2019-04-14T06:58:16.767Z,8104.00
2019-04-14T06:59:16.725Z,8088.00
2019-04-14T07:00:16.738Z,7928.00
2019-04-14T07:01:16.689Z,7592.00
2019-04-14T07:02:16.712Z,7100.00
2019-04-14T07:03:16.698Z,6664.00
2019-04-14T07:04:16.699Z,6564.00
2019-04-14T07:05:16.656Z,6480.00
2019-04-14T07:06:16.651Z,6444.00
2019-04-14T07:07:16.667Z,6620.00
2019-04-14T07:08:16.626Z,6924.00
2019-04-14T07:09:16.632Z,7248.00
2019-04-14T07:10:16.650Z,7348.00
2019-04-14T07:11:16.595Z,7592.00
2019-04-14T07:12:16.721Z,7580.00
2019-04-14T07:13:19.307Z,7476.00
2019-04-14T07:14:16.554Z,7744.00
2019-04-14T07:15:16.580Z,8088.00
2019-04-14T07:16:16.555Z,8568.00
2019-04-14T07:17:16.585Z,8748.00
2019-04-14T07:18:16.515Z,8524.00
2019-04-14T07:19:16.519Z,8540.00
2019-04-14T07:20:16.511Z,8672.00
2019-04-14T07:21:16.505Z,8804.00
2019-04-14T07:22:16.517Z,8792.00
2019-04-14T07:23:16.467Z,8948.00
2019-04-14T07:24:16.446Z,8940.00
2019-04-14T07:25:16.466Z,8820.00
2019-04-14T07:26:16.437Z,9164.00
2019-04-14T07:27:16.457Z,10604.00
2019-04-14T07:28:16.429Z,12784.00
2019-04-14T07:29:16.400Z,14112.00
2019-04-14T07:30:16.396Z,14724.00
2019-04-14T07:31:16.382Z,14424.00
2019-04-14T07:32:16.394Z,14780.00
2019-04-14T07:33:16.357Z,15124.00
2019-04-14T07:34:16.361Z,15392.00
2019-04-14T07:35:16.350Z,13712.00
2019-04-14T07:36:16.449Z,12412.00
2019-04-14T07:37:18.944Z,12116.00
2019-04-14T07:38:16.339Z,13220.00
2019-04-14T07:39:16.367Z,14488.00
2019-04-14T07:40:16.270Z,15680.00
2019-04-14T07:41:16.283Z,15968.00
2019-04-14T07:42:16.307Z,15204.00
2019-04-14T07:43:16.254Z,15176.00
2019-04-14T07:44:16.251Z,14836.00
2019-04-14T07:45:16.257Z,14524.00
2019-04-14T07:46:16.251Z,14560.00
2019-04-14T07:47:16.232Z,14960.00
2019-04-14T07:48:16.215Z,15360.00
2019-04-14T07:49:16.238Z,15488.00
2019-04-14T07:50:16.228Z,15968.00
2019-04-14T07:51:16.252Z,16736.00
2019-04-14T07:52:16.211Z,17824.00
2019-04-14T07:53:16.214Z,18080.00
2019-04-14T07:54:16.221Z,19744.00
2019-04-14T07:55:16.152Z,20576.00
2019-04-14T07:56:16.161Z,21472.00
2019-04-14T07:57:16.388Z,22496.00
2019-04-14T07:58:16.130Z,23008.00
2019-04-14T07:59:16.323Z,25120.00
2019-04-14T08:00:16.208Z,28032.00
2019-04-14T08:01:16.082Z,28160.00
2019-04-14T08:02:16.083Z,27776.00
2019-04-14T08:03:16.227Z,29024.00
2019-04-14T08:04:16.113Z,34112.00
2019-04-14T08:05:15.998Z,36608.00
2019-04-14T08:06:16.110Z,32352.00
2019-04-14T08:07:16.215Z,36480.00
2019-04-14T08:08:16.049Z,31456.00
2019-04-14T08:09:16.151Z,29920.00
2019-04-14T08:10:15.987Z,37824.00
2019-04-14T08:11:15.969Z,36288.00
2019-04-14T08:12:16.025Z,27872.00
2019-04-14T08:13:15.999Z,35136.00
2019-04-14T08:14:15.948Z,26752.00
2019-04-14T08:15:15.995Z,23456.00
2019-04-14T08:16:16.038Z,27200.00
2019-04-14T08:17:15.966Z,32832.00
2019-04-14T08:18:15.938Z,38208.00
2019-04-14T08:19:15.938Z,51392.00
2019-04-14T08:20:26.781Z,59136.00
2019-04-14T08:21:16.902Z,55264.00
2019-04-14T08:22:15.867Z,57536.00
2019-04-14T08:23:15.867Z,42720.00
2019-04-14T08:24:15.814Z,51456.00
2019-04-14T08:25:15.912Z,41312.00
2019-04-14T08:26:15.985Z,50112.00
2019-04-14T08:27:15.905Z,38592.00
2019-04-14T08:28:15.821Z,44448.00
2019-04-14T08:29:15.931Z,47520.00
2019-04-14T08:30:15.833Z,63520.00
2019-04-14T08:31:15.921Z,62720.00
2019-04-14T08:32:15.809Z,49952.00
2019-04-14T08:33:15.943Z,50912.00
2019-04-14T08:34:15.762Z,42784.00
2019-04-14T08:35:15.843Z,37920.00
2019-04-14T08:36:15.711Z,36000.00
2019-04-14T08:37:15.809Z,58144.00
2019-04-14T08:38:15.787Z,37952.00
2019-04-14T08:39:15.649Z,37440.00
2019-04-14T08:40:15.735Z,39456.00
2019-04-14T08:41:15.744Z,40032.00
2019-04-14T08:42:15.681Z,32256.00
2019-04-14T08:43:15.824Z,26464.00
2019-04-14T08:44:15.608Z,25696.00
2019-04-14T08:45:15.658Z,39040.00
2019-04-14T08:46:15.938Z,54592.00
2019-04-14T08:47:15.835Z,56832.00
2019-04-14T08:48:15.827Z,68992.00
2019-04-14T08:49:15.860Z,71808.00
2019-04-14T08:50:15.682Z,50912.00
2019-04-14T08:51:15.624Z,40256.00
2019-04-14T08:52:15.826Z,69600.00
2019-04-14T08:53:15.749Z,67392.00
2019-04-14T08:54:15.625Z,32192.00
2019-04-14T08:55:15.642Z,34048.00
2019-04-14T08:56:15.564Z,64640.00
2019-04-14T08:57:15.592Z,58784.00
2019-04-14T08:58:15.485Z,58432.00
2019-04-14T08:59:15.416Z,67072.00
2019-04-14T09:00:15.511Z,49088.00
2019-04-14T09:01:15.439Z,65120.00
2019-04-14T09:02:15.447Z,56960.00
2019-04-14T09:03:15.430Z,65920.00
2019-04-14T09:04:15.417Z,65440.00
2019-04-14T09:05:15.374Z,62688.00
2019-04-14T09:06:15.504Z,46080.00
2019-04-14T09:07:15.379Z,50496.00
2019-04-14T09:08:15.471Z,70176.00
2019-04-14T09:09:15.341Z,34176.00
2019-04-14T09:10:15.313Z,48928.00
2019-04-14T09:11:15.320Z,31488.00
2019-04-14T09:12:16.206Z,25632.00
2019-04-14T09:13:15.314Z,59040.00
2019-04-14T09:14:15.317Z,64672.00
2019-04-14T09:15:15.263Z,39808.00
2019-04-14T09:16:15.243Z,67264.00
2019-04-14T09:17:15.257Z,66688.00
2019-04-14T09:18:15.375Z,64672.00
2019-04-14T09:19:15.268Z,59520.00
2019-04-14T09:20:15.246Z,58112.00
2019-04-14T09:21:15.188Z,56736.00
2019-04-14T09:22:15.270Z,57824.00
2019-04-14T09:23:15.328Z,58144.00
2019-04-14T09:24:15.166Z,57376.00
2019-04-14T09:25:15.229Z,55392.00
2019-04-14T09:26:15.169Z,50176.00
2019-04-14T09:27:15.131Z,45760.00
2019-04-14T09:28:15.123Z,31840.00
2019-04-14T09:29:15.159Z,19392.00
2019-04-14T09:30:15.133Z,18720.00
2019-04-14T09:31:15.070Z,20416.00
2019-04-14T09:32:15.105Z,24160.00
2019-04-14T09:33:15.090Z,25600.00
2019-04-14T09:34:15.143Z,28704.00
2019-04-14T09:35:15.126Z,29120.00
2019-04-14T09:36:15.111Z,32160.00
2019-04-14T09:37:15.135Z,31456.00
2019-04-14T09:38:15.123Z,59392.00
2019-04-14T09:39:15.030Z,62144.00
2019-04-14T09:40:15.024Z,60192.00
2019-04-14T09:41:14.997Z,52864.00
2019-04-14T09:42:14.992Z,60992.00
2019-04-14T09:43:15.005Z,57536.00
2019-04-14T09:44:14.919Z,51936.00
2019-04-14T09:45:14.931Z,54112.00
2019-04-14T09:46:14.935Z,48992.00
2019-04-14T09:47:14.895Z,41568.00
2019-04-14T09:48:14.935Z,36480.00
2019-04-14T09:49:14.925Z,28224.00
2019-04-14T09:50:14.869Z,34688.00
2019-04-14T09:51:14.875Z,52864.00
2019-04-14T09:52:14.849Z,49728.00
2019-04-14T09:53:14.861Z,25792.00
2019-04-14T09:54:14.880Z,24544.00
2019-04-14T09:55:14.824Z,22400.00
2019-04-14T09:56:14.820Z,22816.00
2019-04-14T09:57:14.801Z,24768.00
2019-04-14T09:58:14.833Z,40416.00
2019-04-14T09:59:14.768Z,27008.00
2019-04-14T10:00:14.751Z,24512.00
2019-04-14T10:01:14.759Z,24640.00
2019-04-14T10:02:14.762Z,26784.00
2019-04-14T10:03:14.777Z,51712.00
2019-04-14T10:04:14.709Z,52960.00
2019-04-14T10:05:14.700Z,47136.00
2019-04-14T10:06:14.715Z,52480.00
2019-04-14T10:07:14.846Z,51104.00
2019-04-14T10:08:14.703Z,52256.00
2019-04-14T10:09:14.670Z,52288.00
2019-04-14T10:10:14.661Z,37728.00
2019-04-14T10:11:14.684Z,54368.00
2019-04-14T10:12:14.666Z,50688.00
2019-04-14T10:13:14.663Z,49888.00
2019-04-14T10:14:14.622Z,54048.00
2019-04-14T10:15:14.593Z,50880.00
2019-04-14T10:16:14.612Z,46144.00
2019-04-14T10:17:14.597Z,26272.00
2019-04-14T10:18:14.582Z,30144.00
2019-04-14T10:19:14.562Z,45504.00
2019-04-14T10:20:14.547Z,40128.00
2019-04-14T10:21:17.491Z,39040.00
2019-04-14T10:22:14.530Z,19680.00
2019-04-14T10:23:14.576Z,17120.00
2019-04-14T10:24:14.491Z,16160.00
2019-04-14T10:25:14.514Z,16384.00
2019-04-14T10:26:14.478Z,16672.00
2019-04-14T10:27:14.472Z,17696.00
2019-04-14T10:28:14.470Z,16128.00
2019-04-14T10:29:14.460Z,15264.00
2019-04-14T10:30:14.441Z,14536.00
2019-04-14T10:31:14.462Z,14500.00
2019-04-14T10:32:14.412Z,14612.00
2019-04-14T10:33:14.454Z,16064.00
2019-04-14T10:34:14.412Z,16672.00
2019-04-14T10:35:14.398Z,14424.00
2019-04-14T10:36:14.414Z,13548.00
2019-04-14T10:37:14.381Z,13192.00
2019-04-14T10:38:14.385Z,13760.00
2019-04-14T10:39:14.342Z,15804.00
2019-04-14T10:40:14.309Z,18688.00
2019-04-14T10:41:14.309Z,39712.00
2019-04-14T10:42:14.292Z,38720.00
2019-04-14T10:43:14.340Z,17120.00
2019-04-14T10:44:14.312Z,39424.00
2019-04-14T10:45:14.313Z,40480.00
2019-04-14T10:46:14.308Z,40032.00
2019-04-14T10:47:14.257Z,23392.00
2019-04-14T10:48:14.323Z,40512.00
2019-04-14T10:49:14.242Z,40704.00
2019-04-14T10:50:14.261Z,38624.00
2019-04-14T10:51:14.241Z,39072.00
2019-04-14T10:52:14.189Z,37120.00
2019-04-14T10:53:14.197Z,28192.00
2019-04-14T10:54:14.192Z,33184.00
2019-04-14T10:55:14.176Z,28992.00
2019-04-14T10:56:14.146Z,32000.00
2019-04-14T10:57:14.165Z,29152.00
2019-04-14T10:58:14.198Z,26816.00
2019-04-14T10:59:14.129Z,25792.00
2019-04-14T11:00:14.188Z,24256.00
2019-04-14T11:01:14.102Z,20320.00
2019-04-14T11:02:14.162Z,19040.00
2019-04-14T11:03:14.099Z,18176.00
2019-04-14T11:04:14.097Z,17312.00
2019-04-14T11:05:14.044Z,19136.00
2019-04-14T11:06:14.097Z,20832.00
2019-04-14T11:07:14.078Z,21152.00
2019-04-14T11:08:14.050Z,21024.00
2019-04-14T11:09:14.082Z,21056.00
2019-04-14T11:10:14.080Z,25120.00
2019-04-14T11:11:14.036Z,25312.00
2019-04-14T11:12:14.004Z,25024.00
2019-04-14T11:13:13.952Z,24928.00
2019-04-14T11:14:13.974Z,24608.00
2019-04-14T11:15:15.531Z,23808.00
2019-04-14T11:16:13.942Z,20064.00
2019-04-14T11:17:13.943Z,22656.00
2019-04-14T11:18:13.960Z,18848.00
2019-04-14T11:19:13.909Z,20928.00
2019-04-14T11:20:13.891Z,23744.00
2019-04-14T11:21:13.908Z,23968.00
2019-04-14T11:22:13.882Z,24128.00
2019-04-14T11:23:13.856Z,24384.00
2019-04-14T11:24:13.907Z,20416.00
2019-04-14T11:25:13.874Z,24224.00
2019-04-14T11:26:13.827Z,24096.00
2019-04-14T11:27:13.846Z,23488.00
2019-04-14T11:28:13.801Z,22592.00
2019-04-14T11:29:13.889Z,19136.00
2019-04-14T11:30:13.812Z,24512.00
2019-04-14T11:31:13.795Z,24320.00
2019-04-14T11:32:13.819Z,20256.00
2019-04-14T11:33:13.775Z,22080.00
2019-04-14T11:34:13.812Z,24448.00
2019-04-14T11:35:16.319Z,22720.00
2019-04-14T11:36:13.763Z,19872.00
2019-04-14T11:37:13.801Z,21856.00
2019-04-14T11:38:13.757Z,21536.00
2019-04-14T11:39:13.729Z,20704.00
2019-04-14T11:40:13.711Z,16192.00
2019-04-14T11:41:13.705Z,17664.00
2019-04-14T11:42:13.710Z,14588.00
2019-04-14T11:43:13.707Z,14332.00
2019-04-14T11:44:13.739Z,14168.00
2019-04-14T11:45:13.687Z,13848.00
2019-04-14T11:46:13.676Z,13468.00
2019-04-14T11:47:16.152Z,13000.00
2019-04-14T11:48:13.661Z,12540.00
2019-04-14T11:49:13.684Z,11824.00
2019-04-14T11:50:13.618Z,11272.00
2019-04-14T11:51:13.566Z,10736.00
2019-04-14T11:52:13.627Z,10636.00
2019-04-14T11:53:13.528Z,10856.00
2019-04-14T11:54:13.560Z,11232.00
2019-04-14T11:55:13.521Z,11948.00
2019-04-14T11:56:13.499Z,13688.00
2019-04-14T11:57:13.500Z,13956.00
2019-04-14T11:58:13.533Z,14748.00
2019-04-14T11:59:13.531Z,15080.00
2019-04-14T12:00:13.473Z,16928.00
2019-04-14T12:01:13.461Z,16544.00
2019-04-14T12:02:13.450Z,14664.00
2019-04-14T12:03:13.483Z,16672.00
2019-04-14T12:04:13.457Z,16256.00
2019-04-14T12:05:13.463Z,13464.00
2019-04-14T12:06:13.427Z,13092.00
2019-04-14T12:07:13.384Z,12924.00
2019-04-14T12:08:13.417Z,13168.00
2019-04-14T12:09:13.398Z,15488.00
2019-04-14T12:10:13.374Z,15008.00
2019-04-14T12:11:13.323Z,14516.00
2019-04-14T12:12:13.330Z,12820.00
2019-04-14T12:13:13.328Z,12936.00
2019-04-14T12:14:13.363Z,14372.00
2019-04-14T12:15:16.663Z,14480.00
2019-04-14T12:16:13.305Z,14980.00
2019-04-14T12:17:13.311Z,14908.00
2019-04-14T12:18:13.267Z,15328.00
2019-04-14T12:19:13.314Z,15776.00
2019-04-14T12:20:13.297Z,16416.00
2019-04-14T12:21:13.244Z,16896.00
2019-04-14T12:22:13.252Z,17120.00
2019-04-14T12:23:15.938Z,17280.00
2019-04-14T12:24:13.235Z,16832.00
2019-04-14T12:25:13.239Z,16000.00
2019-04-14T12:26:13.187Z,14656.00
2019-04-14T12:27:13.162Z,14372.00
2019-04-14T12:28:13.598Z,14212.00
2019-04-14T12:29:14.135Z,14192.00
2019-04-14T12:30:13.688Z,13896.00
2019-04-14T12:31:13.180Z,13968.00
2019-04-14T12:32:13.110Z,15200.00
2019-04-14T12:33:13.166Z,14888.00
2019-04-14T12:34:13.139Z,15424.00
2019-04-14T12:35:13.170Z,14444.00
2019-04-14T12:36:13.102Z,15872.00
2019-04-14T12:37:13.111Z,16000.00
2019-04-14T12:38:13.098Z,15904.00
2019-04-14T12:39:13.075Z,15648.00
2019-04-14T12:40:13.062Z,14976.00
2019-04-14T12:41:13.038Z,14088.00
2019-04-14T12:42:13.035Z,12828.00
2019-04-14T12:43:13.009Z,12412.00